Time;durP1;ratioP1;P1;durP2;ratioP2;P2;SDS_P1;SDS_P2;PMS_P1;PMS_P2;Temp;Humidity;BMP_temperature;BMP_pressure;BME280_temperature;BME280_humidity;BME280_pressure;Samples;Min_cycle;Max_cycle;Signal;HPM_P1;HPM_P2
2022/10/18 00:01:09;;;;;;;9.50;5.40;;;19.00;90.40;;;;;;4964494;29;20228;-89
2022/10/18 00:03:42;;;;;;;10.70;6.00;;;19.00;90.40;;;;;;4963318;29;20216;-89
2022/10/18 00:06:18;;;;;;;9.27;6.10;;;19.00;90.40;;;;;;4951477;29;20226;-87
2022/10/18 00:08:46;;;;;;;12.40;7.17;;;19.00;90.10;;;;;;4951189;29;20547;-89
2022/10/18 00:11:15;;;;;;;12.50;7.33;;;18.90;90.00;;;;;;4949305;28;20617;-88
2022/10/18 00:13:42;;;;;;;10.60;6.47;;;18.90;90.00;;;;;;4952621;29;20217;-88
2022/10/18 00:16:14;;;;;;;9.43;5.83;;;18.90;90.00;;;;;;4952948;29;20253;-88
2022/10/18 00:18:43;;;;;;;13.87;7.70;;;18.90;90.00;;;;;;4951663;29;20298;-89
2022/10/18 00:21:17;;;;;;;16.23;7.53;;;18.80;90.00;;;;;;4951280;29;20273;-89
2022/10/18 00:23:45;;;;;;;14.90;6.33;;;18.80;90.10;;;;;;4950436;28;20644;-89
2022/10/18 00:26:17;;;;;;;14.17;7.43;;;18.80;90.30;;;;;;4950159;28;20210;-89
2022/10/18 00:28:46;;;;;;;11.40;6.73;;;18.80;90.20;;;;;;4950446;29;20292;-89
2022/10/18 00:31:23;;;;;;;11.07;6.37;;;18.70;90.10;;;;;;4957544;29;20269;-89
2022/10/18 00:33:52;;;;;;;9.77;6.23;;;18.70;90.00;;;;;;4964673;29;20193;-89
2022/10/18 00:36:21;;;;;;;7.87;5.90;;;18.70;90.00;;;;;;4964174;29;20234;-89
2022/10/18 00:38:49;;;;;;;11.63;6.30;;;18.60;90.10;;;;;;4958021;29;20673;-89
2022/10/18 00:41:18;;;;;;;12.07;6.63;;;18.60;90.30;;;;;;4957135;28;20289;-89
2022/10/18 00:43:54;;;;;;;9.47;6.37;;;18.60;90.50;;;;;;4939246;29;20215;-89
2022/10/18 00:46:24;;;;;;;14.40;7.43;;;18.50;90.50;;;;;;4949330;29;20217;-88
2022/10/18 00:48:58;;;;;;;10.80;6.20;;;18.50;90.60;;;;;;4953492;29;20254;-88
2022/10/18 00:51:31;;;;;;;15.47;7.30;;;18.50;90.70;;;;;;4954087;29;20209;-89
2022/10/18 00:53:58;;;;;;;11.47;6.33;;;18.50;90.60;;;;;;4974712;28;20222;-89
2022/10/18 00:56:27;;;;;;;8.83;5.80;;;18.50;90.60;;;;;;5022141;28;20685;-89
2022/10/18 00:58:55;;;;;;;9.73;5.97;;;18.50;90.80;;;;;;4956965;28;20645;-89
2022/10/18 01:01:25;;;;;;;11.53;6.03;;;18.40;90.70;;;;;;4956680;28;20729;-89
2022/10/18 01:03:53;;;;;;;11.70;6.43;;;18.40;90.90;;;;;;4946331;29;20242;-88
2022/10/18 01:06:20;;;;;;;11.87;6.17;;;18.40;90.90;;;;;;4947800;29;20301;-89
2022/10/18 01:09:02;;;;;;;8.90;5.47;;;18.40;90.80;;;;;;4938790;29;20305;-90
2022/10/18 01:11:45;;;;;;;14.00;6.03;;;18.40;91.10;;;;;;4947753;29;20677;-89
2022/10/18 01:14:24;;;;;;;11.10;6.23;;;18.40;90.80;;;;;;4953923;29;20221;-90
2022/10/18 01:16:59;;;;;;;12.43;6.33;;;18.40;90.90;;;;;;4952582;29;20577;-89
2022/10/18 01:20:01;;;;;;;11.43;6.50;;;18.40;90.70;;;;;;4952424;29;20666;-86
2022/10/18 01:22:35;;;;;;;13.67;6.73;;;18.40;90.80;;;;;;4940916;29;20695;-89
2022/10/18 01:25:16;;;;;;;16.10;7.70;;;18.30;90.60;;;;;;4952455;28;20273;-89
2022/10/18 01:27:58;;;;;;;12.10;6.33;;;18.30;90.80;;;;;;4953410;29;20241;-89
2022/10/18 01:30:49;;;;;;;11.63;6.30;;;18.30;90.90;;;;;;4953642;29;20250;-88
2022/10/18 01:33:25;;;;;;;13.93;6.30;;;18.30;90.80;;;;;;4948037;29;20246;-90
2022/10/18 01:36:00;;;;;;;15.77;5.97;;;18.30;91.20;;;;;;4949565;29;20330;-87
2022/10/18 01:38:30;;;;;;;15.67;7.13;;;18.20;90.80;;;;;;4934468;29;20211;-89
2022/10/18 01:41:00;;;;;;;12.13;6.10;;;18.30;90.80;;;;;;4945101;29;20252;-89
2022/10/18 01:43:29;;;;;;;15.73;7.23;;;18.20;90.80;;;;;;4950793;28;20299;-90
2022/10/18 01:46:01;;;;;;;15.13;7.67;;;18.20;90.90;;;;;;4950424;29;20206;-89
2022/10/18 01:48:36;;;;;;;17.20;7.27;;;18.20;91.00;;;;;;4958615;28;20217;-89
2022/10/18 01:51:05;;;;;;;12.57;6.80;;;18.20;90.80;;;;;;4962807;28;20351;-89
2022/10/18 01:53:35;;;;;;;11.43;7.07;;;18.20;90.80;;;;;;4956323;29;20241;-89
2022/10/18 01:56:20;;;;;;;11.53;7.00;;;18.10;91.10;;;;;;4954512;29;20279;-89
2022/10/18 01:59:07;;;;;;;14.27;7.37;;;18.10;91.40;;;;;;4948651;28;20215;-89
2022/10/18 02:01:43;;;;;;;15.43;7.17;;;18.10;91.60;;;;;;4953447;28;20225;-88
2022/10/18 02:04:20;;;;;;;11.80;7.23;;;18.10;91.60;;;;;;4956788;29;20288;-89
2022/10/18 02:06:54;;;;;;;11.43;6.50;;;18.10;91.50;;;;;;4936557;29;20210;-88
2022/10/18 02:09:34;;;;;;;15.27;7.00;;;18.10;91.30;;;;;;4934876;29;20241;-89
2022/10/18 02:12:06;;;;;;;16.00;7.63;;;18.10;91.30;;;;;;4934999;29;20206;-86
2022/10/18 02:14:34;;;;;;;17.60;7.73;;;18.00;91.20;;;;;;4934072;29;20254;-89
2022/10/18 02:17:14;;;;;;;16.27;7.80;;;18.10;91.30;;;;;;4934812;29;20672;-90
2022/10/18 02:19:49;;;;;;;15.97;7.10;;;18.10;91.50;;;;;;5001305;28;20213;-88
2022/10/18 02:22:21;;;;;;;14.10;7.63;;;18.00;91.20;;;;;;4942424;29;20225;-89
2022/10/18 02:24:53;;;;;;;11.77;6.90;;;18.00;91.20;;;;;;4957751;29;20260;-89
2022/10/18 02:27:20;;;;;;;17.33;7.33;;;18.00;91.20;;;;;;4953669;28;20209;-89
2022/10/18 02:29:48;;;;;;;12.83;6.60;;;18.00;91.10;;;;;;4955933;28;20202;-89
2022/10/18 02:32:23;;;;;;;18.83;8.43;;;18.00;91.50;;;;;;5020089;28;20226;-89
2022/10/18 02:35:00;;;;;;;14.47;6.60;;;18.00;91.20;;;;;;4953032;29;20233;-89
2022/10/18 02:37:36;;;;;;;20.93;8.30;;;18.00;91.20;;;;;;4953407;29;20233;-90
2022/10/18 02:40:11;;;;;;;13.60;6.50;;;18.00;91.20;;;;;;4954981;29;20246;-89
2022/10/18 02:42:46;;;;;;;15.73;7.23;;;18.00;91.20;;;;;;4955289;28;20200;-89
2022/10/18 02:45:16;;;;;;;12.37;6.10;;;17.90;91.10;;;;;;4967718;28;20232;-90
2022/10/18 02:47:45;;;;;;;13.47;5.77;;;17.90;91.10;;;;;;4963296;28;20212;-86
2022/10/18 02:50:13;;;;;;;11.67;5.63;;;17.90;91.10;;;;;;4952949;28;20281;-89
2022/10/18 02:52:40;;;;;;;10.70;6.13;;;17.90;91.10;;;;;;4938255;28;20229;-90
2022/10/18 02:55:08;;;;;;;13.27;6.67;;;17.90;91.20;;;;;;4950240;29;20237;-89
2022/10/18 02:57:38;;;;;;;16.27;7.80;;;17.90;91.60;;;;;;4955673;29;20323;-89
2022/10/18 03:00:07;;;;;;;11.80;5.77;;;17.90;91.70;;;;;;4957055;29;20294;-89
2022/10/18 03:02:36;;;;;;;16.30;6.53;;;17.90;91.70;;;;;;4954815;28;20294;-90
2022/10/18 03:05:06;;;;;;;16.50;7.17;;;17.90;91.80;;;;;;4957456;28;20200;-89
2022/10/18 03:07:33;;;;;;;12.00;6.40;;;17.90;91.80;;;;;;4956917;29;20209;-89
2022/10/18 03:10:01;;;;;;;11.73;6.67;;;17.80;91.70;;;;;;4957057;29;20268;-88
2022/10/18 03:12:34;;;;;;;20.97;9.00;;;17.80;91.70;;;;;;4956757;29;20237;-89
2022/10/18 03:15:06;;;;;;;16.57;6.50;;;17.80;91.80;;;;;;4961314;28;20306;-89
2022/10/18 03:17:33;;;;;;;11.57;6.33;;;17.90;91.80;;;;;;4959701;29;20242;-89
2022/10/18 03:20:00;;;;;;;13.23;6.60;;;17.90;91.60;;;;;;4956773;28;20624;-89
2022/10/18 03:22:30;;;;;;;17.67;8.17;;;17.80;91.70;;;;;;4952410;28;20210;-89
2022/10/18 03:25:03;;;;;;;14.20;7.17;;;17.80;91.90;;;;;;4954762;29;20253;-90
2022/10/18 03:27:30;;;;;;;14.23;6.90;;;17.80;91.70;;;;;;4956414;29;20231;-89
2022/10/18 03:29:58;;;;;;;10.63;5.83;;;17.80;91.70;;;;;;4956964;29;20263;-89
2022/10/18 03:32:25;;;;;;;17.87;7.20;;;17.80;91.60;;;;;;4956123;29;20281;-90
2022/10/18 03:34:53;;;;;;;13.03;6.00;;;17.80;91.70;;;;;;4955415;29;20228;-89
2022/10/18 03:37:22;;;;;;;10.43;5.53;;;17.80;91.80;;;;;;4955220;29;20264;-89
2022/10/18 03:39:55;;;;;;;15.30;6.53;;;17.80;91.80;;;;;;4971380;28;20217;-90
2022/10/18 03:42:30;;;;;;;10.67;5.80;;;17.80;91.90;;;;;;4974750;28;20234;-89
2022/10/18 03:45:00;;;;;;;9.60;5.60;;;17.90;91.80;;;;;;4959206;29;20204;-89
2022/10/18 03:47:35;;;;;;;9.03;4.97;;;17.80;91.80;;;;;;4955151;28;20182;-90
2022/10/18 03:50:03;;;;;;;7.10;5.10;;;17.80;91.70;;;;;;5034886;28;20192;-90
2022/10/18 03:52:36;;;;;;;10.03;5.87;;;17.80;91.50;;;;;;4972557;28;20216;-90
2022/10/18 03:55:10;;;;;;;10.70;5.70;;;17.80;91.40;;;;;;4956442;28;20227;-90
2022/10/18 03:57:45;;;;;;;9.70;6.20;;;17.80;91.40;;;;;;4970016;28;20278;-89
2022/10/18 04:00:18;;;;;;;12.07;5.73;;;17.80;91.30;;;;;;4972978;28;20205;-89
2022/10/18 04:02:52;;;;;;;11.90;5.33;;;17.70;91.10;;;;;;4973298;28;20210;-89
2022/10/18 04:05:27;;;;;;;9.60;5.60;;;17.70;91.10;;;;;;4952253;29;20198;-89
2022/10/18 04:07:56;;;;;;;7.63;5.17;;;17.70;91.10;;;;;;4954143;28;20229;-90
2022/10/18 04:10:37;;;;;;;12.97;6.33;;;17.70;91.10;;;;;;4955238;28;20191;-90
2022/10/18 04:13:23;;;;;;;10.20;6.47;;;17.70;91.10;;;;;;4972403;28;20208;-90
2022/10/18 04:15:50;;;;;;;11.47;6.03;;;17.60;91.00;;;;;;4960822;29;20240;-90
2022/10/18 04:18:17;;;;;;;11.30;5.70;;;17.60;90.80;;;;;;4967415;28;20213;-90
2022/10/18 04:20:44;;;;;;;14.70;7.03;;;17.60;90.70;;;;;;4953149;28;20713;-90
2022/10/18 04:23:12;;;;;;;12.00;6.10;;;17.60;90.70;;;;;;4952237;29;20883;-90
2022/10/18 04:25:40;;;;;;;19.33;7.97;;;17.50;90.60;;;;;;4950426;29;20893;-90
2022/10/18 04:28:09;;;;;;;13.13;6.63;;;17.50;90.70;;;;;;4932305;28;20207;-89
2022/10/18 04:30:38;;;;;;;14.00;7.20;;;17.50;90.70;;;;;;4938850;29;20210;-91
2022/10/18 04:33:09;;;;;;;9.93;5.77;;;17.50;90.60;;;;;;4942293;28;20219;-89
2022/10/18 04:35:38;;;;;;;15.50;7.13;;;17.40;90.60;;;;;;4955410;28;20233;-90
2022/10/18 04:38:05;;;;;;;13.90;6.60;;;17.40;90.50;;;;;;4955644;29;20236;-90
2022/10/18 04:40:34;;;;;;;9.93;5.23;;;17.40;90.40;;;;;;4950144;28;20239;-90
2022/10/18 04:43:05;;;;;;;10.07;5.13;;;17.40;90.30;;;;;;4955967;28;20223;-90
2022/10/18 04:45:33;;;;;;;14.33;6.97;;;17.30;90.20;;;;;;4955445;29;20241;-90
2022/10/18 04:48:01;;;;;;;12.83;6.13;;;17.30;90.40;;;;;;4941059;29;20212;-91
2022/10/18 04:50:30;;;;;;;10.27;5.60;;;17.30;90.40;;;;;;4940630;28;20270;-90
2022/10/18 04:52:57;;;;;;;15.90;6.50;;;17.20;90.50;;;;;;4930553;29;20217;-91
2022/10/18 04:55:33;;;;;;;14.90;6.83;;;17.20;90.40;;;;;;4930240;28;20589;-90
2022/10/18 04:58:16;;;;;;;10.33;6.00;;;17.10;90.20;;;;;;4942102;29;20219;-91
2022/10/18 05:00:44;;;;;;;12.73;6.10;;;17.10;90.00;;;;;;4957965;28;20231;-90
2022/10/18 05:03:37;;;;;;;14.60;5.10;;;17.10;90.10;;;;;;4943113;28;20204;-90
2022/10/18 05:06:11;;;;;;;10.00;5.33;;;17.00;90.10;;;;;;5011453;28;20208;-90
2022/10/18 05:08:41;;;;;;;13.57;6.23;;;17.00;90.20;;;;;;4956773;29;20208;-91
2022/10/18 05:11:11;;;;;;;14.00;6.87;;;17.00;90.20;;;;;;4947151;29;20212;-91
2022/10/18 05:13:40;;;;;;;24.53;9.30;;;17.00;90.40;;;;;;4932979;28;20205;-91
2022/10/18 05:16:08;;;;;;;14.13;6.73;;;16.90;90.30;;;;;;4935025;29;20224;-91
2022/10/18 05:18:41;;;;;;;10.97;6.00;;;16.90;90.30;;;;;;4940093;28;20231;-90
2022/10/18 05:21:11;;;;;;;20.27;7.17;;;16.80;90.20;;;;;;4954002;29;20203;-90
2022/10/18 05:23:42;;;;;;;15.70;6.60;;;16.80;90.30;;;;;;4934422;28;20290;-91
2022/10/18 05:26:09;;;;;;;15.20;7.40;;;16.70;90.40;;;;;;4944931;28;20199;-90
2022/10/18 05:28:39;;;;;;;12.47;6.77;;;16.70;90.40;;;;;;4968174;29;20202;-91
2022/10/18 05:31:11;;;;;;;16.07;7.83;;;16.70;90.40;;;;;;4963889;29;20230;-90
2022/10/18 05:33:38;;;;;;;14.53;6.93;;;16.70;90.50;;;;;;4960582;29;20266;-90
2022/10/18 05:36:08;;;;;;;16.13;7.10;;;16.60;90.50;;;;;;4954296;28;20275;-90
2022/10/18 05:38:35;;;;;;;15.93;7.73;;;16.60;90.40;;;;;;4951740;28;20225;-91
2022/10/18 05:41:05;;;;;;;12.97;6.80;;;16.60;90.30;;;;;;4957316;29;20213;-90
2022/10/18 05:43:32;;;;;;;13.20;6.80;;;16.60;90.50;;;;;;4956825;29;20293;-90
2022/10/18 05:45:59;;;;;;;21.47;9.17;;;16.50;90.40;;;;;;4948871;29;20224;-91
2022/10/18 05:48:28;;;;;;;16.33;7.20;;;16.50;90.30;;;;;;4954106;29;20200;-91
2022/10/18 05:50:59;;;;;;;15.30;7.73;;;16.50;90.30;;;;;;4939753;28;20215;-92
2022/10/18 05:53:27;;;;;;;20.57;10.37;;;16.40;90.20;;;;;;4940594;28;20210;-92
2022/10/18 05:55:56;;;;;;;13.70;8.90;;;16.40;90.20;;;;;;4945772;29;20667;-91
2022/10/18 05:58:28;;;;;;;19.27;8.37;;;16.40;90.40;;;;;;4954170;29;20219;-92
2022/10/18 06:01:05;;;;;;;13.90;7.90;;;16.40;90.70;;;;;;4946822;29;20295;-91
2022/10/18 06:03:34;;;;;;;17.97;8.50;;;16.30;90.40;;;;;;4958400;29;20207;-91
2022/10/18 06:06:04;;;;;;;19.47;8.33;;;16.30;90.30;;;;;;4957728;29;20222;-92
2022/10/18 06:08:32;;;;;;;21.27;9.13;;;16.20;90.20;;;;;;4947305;29;20966;-91
2022/10/18 06:10:59;;;;;;;17.80;7.90;;;16.20;90.30;;;;;;4964583;29;20211;-92
2022/10/18 06:13:26;;;;;;;17.87;8.93;;;16.20;90.40;;;;;;4950431;28;20199;-91
2022/10/18 06:15:56;;;;;;;16.47;8.23;;;16.20;90.50;;;;;;4959676;29;20226;-92
2022/10/18 06:18:25;;;;;;;16.33;7.83;;;16.10;90.30;;;;;;4954909;29;20219;-91
2022/10/18 06:20:58;;;;;;;16.33;7.33;;;16.10;90.20;;;;;;4954771;29;20302;-92
2022/10/18 06:23:25;;;;;;;16.00;8.53;;;16.10;90.20;;;;;;4953580;28;20289;-92
2022/10/18 06:25:53;;;;;;;16.00;7.67;;;16.10;90.40;;;;;;4968575;29;20218;-91
2022/10/18 06:28:22;;;;;;;15.40;7.70;;;16.10;90.60;;;;;;4946953;28;20198;-91
2022/10/18 06:30:49;;;;;;;13.80;6.97;;;16.00;90.50;;;;;;4952537;29;20204;-91
2022/10/18 06:33:17;;;;;;;18.97;8.57;;;16.00;90.50;;;;;;4948460;29;20215;-92
2022/10/18 06:36:02;;;;;;;9.80;5.63;;;16.00;90.60;;;;;;4957443;29;20262;-91
2022/10/18 06:38:31;;;;;;;17.13;7.50;;;16.00;90.80;;;;;;4953235;28;20626;-90
2022/10/18 06:41:06;;;;;;;17.50;8.37;;;15.90;90.60;;;;;;4959275;29;20215;-90
2022/10/18 06:43:33;;;;;;;17.53;8.57;;;15.90;90.70;;;;;;5000303;28;20214;-91
2022/10/18 06:46:03;;;;;;;15.77;8.20;;;15.90;90.70;;;;;;4932746;29;20218;-91
2022/10/18 06:48:33;;;;;;;24.97;9.20;;;15.90;90.80;;;;;;5015720;28;20220;-91
2022/10/18 06:51:07;;;;;;;18.87;9.03;;;15.90;90.80;;;;;;4948237;28;20478;-91
2022/10/18 06:53:36;;;;;;;16.97;8.27;;;15.90;91.00;;;;;;4951693;29;20208;-91
2022/10/18 06:56:06;;;;;;;15.03;7.87;;;15.80;90.90;;;;;;4940736;29;20247;-91
2022/10/18 06:58:36;;;;;;;16.20;8.33;;;15.80;90.90;;;;;;4947776;29;20526;-90
2022/10/18 07:01:08;;;;;;;18.37;7.90;;;15.80;91.10;;;;;;4943221;29;20204;-90
2022/10/18 07:03:36;;;;;;;18.67;8.37;;;15.80;91.30;;;;;;4945376;29;20704;-90
2022/10/18 07:06:06;;;;;;;18.73;8.57;;;15.80;91.20;;;;;;4931781;29;20293;-89
2022/10/18 07:08:34;;;;;;;18.17;7.70;;;15.80;91.50;;;;;;4931650;28;20691;-90
2022/10/18 07:11:02;;;;;;;17.67;8.20;;;15.80;91.50;;;;;;4931965;29;20266;-90
2022/10/18 07:13:30;;;;;;;23.03;8.40;;;15.80;91.60;;;;;;4937582;29;20246;-89
2022/10/18 07:16:03;;;;;;;18.20;7.37;;;15.80;91.70;;;;;;4942335;29;20208;-89
2022/10/18 07:18:32;;;;;;;19.93;8.13;;;15.80;91.90;;;;;;4944165;29;20212;-90
2022/10/18 07:21:11;;;;;;;14.53;6.87;;;15.80;91.90;;;;;;4951731;28;20202;-90
2022/10/18 07:23:45;;;;;;;17.50;7.67;;;15.70;92.10;;;;;;4966799;29;20213;-90
2022/10/18 07:26:16;;;;;;;15.63;7.97;;;15.80;92.10;;;;;;4954238;28;20207;-90
2022/10/18 07:28:54;;;;;;;14.27;6.70;;;15.70;92.10;;;;;;4955700;29;20201;-89
2022/10/18 07:31:23;;;;;;;13.97;7.23;;;15.80;92.30;;;;;;4937262;28;20204;-90
2022/10/18 07:33:50;;;;;;;14.83;7.13;;;15.80;92.30;;;;;;4936471;29;20259;-90
2022/10/18 07:45:16;;;;;;;18.40;8.67;;;15.80;92.10;;;;;;4716279;22;20246;-91
2022/10/18 07:47:45;;;;;;;14.93;7.77;;;15.90;92.40;;;;;;4938641;28;20209;-89
2022/10/18 07:50:13;;;;;;;16.17;7.73;;;15.90;92.70;;;;;;4933325;28;20223;-89
2022/10/18 07:52:41;;;;;;;18.17;8.63;;;15.90;92.40;;;;;;4941133;29;20688;-90
2022/10/18 07:55:08;;;;;;;21.40;9.50;;;15.90;92.60;;;;;;4937828;29;20216;-90
2022/10/18 07:57:35;;;;;;;17.10;8.30;;;15.90;93.00;;;;;;4959856;29;20264;-90
2022/10/18 08:00:07;;;;;;;17.00;8.90;;;16.00;93.40;;;;;;4965520;29;20218;-90
2022/10/18 08:02:36;;;;;;;19.50;11.63;;;16.10;94.20;;;;;;4966064;28;20203;-90
2022/10/18 08:05:06;;;;;;;18.53;11.73;;;16.20;94.60;;;;;;4964044;28;20563;-90
2022/10/18 08:07:34;;;;;;;12.97;9.13;;;16.30;94.50;;;;;;4961486;29;20205;-90
2022/10/18 08:10:09;;;;;;;12.37;8.03;;;16.40;94.40;;;;;;4948647;28;20239;-89
2022/10/18 08:12:39;;;;;;;15.80;10.03;;;16.50;94.60;;;;;;4948355;29;20656;-90
2022/10/18 08:15:12;;;;;;;16.40;9.83;;;16.70;94.20;;;;;;4951089;28;20201;-90
2022/10/18 08:17:45;;;;;;;13.57;8.63;;;16.80;94.10;;;;;;4983198;28;20561;-91
2022/10/18 08:20:12;;;;;;;12.47;8.10;;;16.90;94.00;;;;;;4953681;29;20674;-89
2022/10/18 08:22:39;;;;;;;15.77;8.97;;;17.00;93.80;;;;;;4948830;28;20270;-90
2022/10/18 08:25:07;;;;;;;14.57;8.57;;;17.10;93.70;;;;;;4948321;28;20280;-90
2022/10/18 08:27:34;;;;;;;13.90;7.20;;;17.20;93.80;;;;;;4947533;29;20310;-90
2022/10/18 08:30:02;;;;;;;15.67;8.53;;;17.30;93.70;;;;;;4939976;28;20296;-91
2022/10/18 08:32:36;;;;;;;17.93;8.80;;;17.40;93.60;;;;;;4940358;28;20219;-90
2022/10/18 08:35:06;;;;;;;15.70;8.20;;;17.50;93.90;;;;;;4993552;28;20529;-90
2022/10/18 08:37:34;;;;;;;11.70;7.00;;;17.60;94.20;;;;;;4930440;28;20320;-91
2022/10/18 08:40:05;;;;;;;14.13;6.33;;;17.70;94.40;;;;;;4932784;28;20209;-91
2022/10/18 08:42:57;;;;;;;14.40;7.20;;;17.80;94.80;;;;;;4931955;29;20739;-91
2022/10/18 08:45:28;;;;;;;14.37;7.13;;;17.90;95.80;;;;;;4933324;28;20315;-91
2022/10/18 08:47:58;;;;;;;15.43;7.23;;;18.10;96.40;;;;;;4933459;28;20254;-91
2022/10/18 08:50:35;;;;;;;14.57;7.00;;;18.30;96.70;;;;;;4930063;29;20220;-90
2022/10/18 08:53:14;;;;;;;14.63;6.33;;;18.50;97.00;;;;;;4928146;28;20215;-90
2022/10/18 08:55:45;;;;;;;18.00;7.50;;;18.70;96.50;;;;;;4932809;28;20687;-91
2022/10/18 08:58:17;;;;;;;17.60;7.27;;;19.00;96.50;;;;;;4929024;28;20319;-91
2022/10/18 09:00:54;;;;;;;19.07;6.43;;;19.20;95.50;;;;;;4925811;28;20299;-91
2022/10/18 09:03:40;;;;;;;14.77;6.53;;;19.50;95.30;;;;;;4933791;28;20264;-91
2022/10/18 09:06:18;;;;;;;11.27;5.70;;;19.80;94.80;;;;;;4931034;29;20204;-91
2022/10/18 09:09:01;;;;;;;14.37;5.80;;;20.10;95.70;;;;;;4941683;28;20279;-90
2022/10/18 09:11:51;;;;;;;15.20;4.43;;;20.40;95.70;;;;;;4943903;28;20199;-91
2022/10/18 09:14:46;;;;;;;16.83;5.10;;;20.70;95.10;;;;;;4954939;29;20224;-92
2022/10/18 09:17:24;;;;;;;11.30;4.23;;;21.00;93.90;;;;;;4953659;28;20239;-91
2022/10/18 09:20:06;;;;;;;18.40;5.87;;;21.30;92.70;;;;;;4932156;28;20231;-92
2022/10/18 09:22:51;;;;;;;14.03;4.23;;;21.60;92.20;;;;;;4933959;29;20211;-91
2022/10/18 09:25:24;;;;;;;15.20;5.43;;;21.90;90.90;;;;;;4932403;29;20211;-91
2022/10/18 09:27:59;;;;;;;19.23;5.33;;;22.20;91.00;;;;;;4927562;29;20270;-91
2022/10/18 09:30:45;;;;;;;13.50;4.93;;;22.30;90.10;;;;;;4912719;29;20660;-91
2022/10/18 09:33:35;;;;;;;13.50;4.93;;;22.50;89.00;;;;;;4913044;29;20295;-90
2022/10/18 09:36:05;;;;;;;14.27;4.13;;;22.70;87.20;;;;;;4923829;28;20208;-91
2022/10/18 09:38:44;;;;;;;16.83;4.80;;;23.00;88.30;;;;;;4929671;28;20233;-91
2022/10/18 09:41:17;;;;;;;12.17;4.30;;;23.10;85.00;;;;;;4929308;29;20651;-91
2022/10/18 09:43:52;;;;;;;12.67;3.77;;;23.30;84.80;;;;;;4944363;29;20743;-89
2022/10/18 09:46:25;;;;;;;9.40;3.37;;;23.50;81.70;;;;;;4945206;29;20203;-91
2022/10/18 09:48:58;;;;;;;9.33;3.23;;;23.60;82.30;;;;;;4937058;29;20661;-91
2022/10/18 09:51:38;;;;;;;7.73;2.73;;;23.80;82.20;;;;;;4918942;28;20216;-91
2022/10/18 09:54:24;;;;;;;12.50;3.43;;;23.90;79.70;;;;;;4912935;28;20562;-90
2022/10/18 09:57:02;;;;;;;16.43;4.53;;;24.10;78.70;;;;;;4927467;28;20244;-90
2022/10/18 09:59:36;;;;;;;13.27;3.83;;;24.20;79.70;;;;;;4919648;28;20208;-90
2022/10/18 10:02:04;;;;;;;13.30;3.70;;;24.40;77.80;;;;;;4928663;28;20212;-90
2022/10/18 10:04:32;;;;;;;15.87;4.77;;;24.40;77.90;;;;;;4931317;28;20223;-90
2022/10/18 10:07:02;;;;;;;13.87;4.93;;;24.50;77.20;;;;;;4930639;28;20211;-89
2022/10/18 10:09:37;;;;;;;13.53;3.90;;;24.60;75.70;;;;;;4923675;29;20220;-90
2022/10/18 10:12:24;;;;;;;13.40;4.17;;;24.70;74.90;;;;;;4923002;28;20298;-91
2022/10/18 10:14:51;;;;;;;13.80;4.50;;;24.70;75.40;;;;;;4931912;28;20294;-89
2022/10/18 10:17:23;;;;;;;9.97;4.00;;;24.70;75.10;;;;;;4931990;29;20232;-90
2022/10/18 10:20:01;;;;;;;11.10;3.60;;;24.80;72.90;;;;;;4933211;29;20247;-90
2022/10/18 10:22:33;;;;;;;13.93;4.90;;;24.80;72.80;;;;;;4931998;29;20295;-90
2022/10/18 10:25:02;;;;;;;14.97;5.20;;;24.80;74.40;;;;;;4926964;28;20204;-90
2022/10/18 10:27:32;;;;;;;16.20;5.13;;;24.70;73.80;;;;;;4927243;28;20236;-90
2022/10/18 10:30:02;;;;;;;11.50;4.10;;;24.80;73.40;;;;;;4932660;28;20212;-90
2022/10/18 10:32:46;;;;;;;13.77;4.80;;;24.80;72.90;;;;;;4930783;28;20244;-90
2022/10/18 10:35:28;;;;;;;14.30;3.90;;;24.90;70.10;;;;;;4930895;29;20568;-90
2022/10/18 10:37:59;;;;;;;11.13;4.23;;;25.00;70.60;;;;;;4935194;29;20665;-90
2022/10/18 10:40:31;;;;;;;10.30;2.90;;;25.00;71.80;;;;;;4947444;29;20230;-90
2022/10/18 10:43:07;;;;;;;13.33;3.57;;;25.00;70.90;;;;;;4986027;28;20215;-91
2022/10/18 10:45:41;;;;;;;8.23;3.30;;;25.10;71.20;;;;;;4946459;28;20612;-92
2022/10/18 10:48:14;;;;;;;13.50;4.40;;;25.10;70.90;;;;;;4939858;28;20208;-91
2022/10/18 10:50:53;;;;;;;9.60;3.10;;;25.20;70.40;;;;;;4939551;28;20208;-90
2022/10/18 10:53:32;;;;;;;10.67;3.50;;;25.30;69.10;;;;;;4933110;28;20262;-91
2022/10/18 10:56:01;;;;;;;10.97;3.47;;;25.30;69.70;;;;;;4933479;28;20246;-91
2022/10/18 10:58:36;;;;;;;9.90;2.90;;;25.40;70.00;;;;;;4928899;29;20232;-91
2022/10/18 11:01:23;;;;;;;21.30;5.57;;;25.50;69.50;;;;;;4926340;28;20207;-90
2022/10/18 11:03:52;;;;;;;10.10;3.93;;;25.70;68.10;;;;;;4927891;28;20308;-91
2022/10/18 11:06:48;;;;;;;13.37;3.40;;;25.80;68.50;;;;;;4929110;29;20216;-91
2022/10/18 11:09:40;;;;;;;14.93;4.47;;;25.90;67.20;;;;;;4906024;28;20771;-90
2022/10/18 11:12:26;;;;;;;11.70;3.67;;;26.00;67.60;;;;;;4919079;28;20674;-90
2022/10/18 11:15:02;;;;;;;9.77;3.00;;;26.10;66.30;;;;;;4923934;28;20244;-90
2022/10/18 11:20:22;;;;;;;14.03;3.63;;;26.20;66.80;;;;;;4926686;28;20236;-90
2022/10/18 11:23:00;;;;;;;12.80;3.67;;;26.40;67.10;;;;;;4923704;28;20239;-90
2022/10/18 11:25:55;;;;;;;12.03;3.23;;;26.50;65.90;;;;;;4923994;28;20861;-90
2022/10/18 11:28:32;;;;;;;11.03;3.70;;;26.60;65.50;;;;;;4920233;28;20220;-90
2022/10/18 11:31:15;;;;;;;7.83;3.07;;;26.80;65.30;;;;;;4910909;28;20308;-90
2022/10/18 11:33:55;;;;;;;10.53;4.17;;;26.90;65.00;;;;;;4917439;28;20251;-89
2022/10/18 11:36:33;;;;;;;10.50;3.10;;;27.00;63.80;;;;;;4946403;29;20248;-89
2022/10/18 11:39:10;;;;;;;8.13;3.30;;;27.20;63.70;;;;;;4951626;29;20232;-89
2022/10/18 11:41:41;;;;;;;12.47;4.00;;;27.30;63.80;;;;;;4936236;29;20215;-89
2022/10/18 11:44:22;;;;;;;13.53;4.67;;;27.30;63.60;;;;;;4935651;28;20240;-89
2022/10/18 11:47:00;;;;;;;7.03;2.80;;;27.40;62.60;;;;;;4934615;28;20892;-89
2022/10/18 11:49:48;;;;;;;12.30;3.93;;;27.50;62.10;;;;;;4935056;28;20218;-89
2022/10/18 11:52:21;;;;;;;9.27;3.60;;;27.50;61.60;;;;;;4939309;28;20204;-89
2022/10/18 11:55:27;;;;;;;13.50;4.03;;;27.60;61.70;;;;;;4932204;29;20223;-89
2022/10/18 11:58:02;;;;;;;16.60;4.20;;;27.50;59.40;;;;;;4931383;28;20224;-89
2022/10/18 12:00:47;;;;;;;9.27;3.63;;;27.50;60.10;;;;;;4931400;28;20239;-89
2022/10/18 12:03:45;;;;;;;8.33;3.27;;;27.50;59.00;;;;;;4933762;28;20647;-89
2022/10/18 12:06:16;;;;;;;9.73;3.70;;;27.40;58.90;;;;;;4932361;29;20752;-89
2022/10/18 12:08:47;;;;;;;7.70;2.97;;;27.40;60.00;;;;;;4928006;28;20200;-89
2022/10/18 12:11:18;;;;;;;9.20;3.27;;;27.40;60.40;;;;;;4928456;28;20628;-90
2022/10/18 12:13:52;;;;;;;9.47;3.27;;;27.40;59.90;;;;;;4928820;28;20235;-89
2022/10/18 12:16:25;;;;;;;10.00;3.13;;;27.40;59.10;;;;;;4928900;29;20600;-90
2022/10/18 12:18:56;;;;;;;12.00;3.87;;;27.50;59.20;;;;;;4929421;28;20235;-90
2022/10/18 12:21:29;;;;;;;9.90;3.10;;;27.50;59.30;;;;;;4933022;28;20643;-90
2022/10/18 12:24:05;;;;;;;7.90;3.00;;;27.60;59.70;;;;;;4937550;28;20212;-90
2022/10/18 12:26:48;;;;;;;6.17;2.67;;;27.70;59.70;;;;;;4943759;29;20238;-90
2022/10/18 12:29:29;;;;;;;10.50;3.90;;;27.80;58.40;;;;;;5012394;28;20212;-89
2022/10/18 12:31:59;;;;;;;10.60;3.10;;;27.90;58.60;;;;;;4946369;29;20211;-90
2022/10/18 12:34:35;;;;;;;12.47;3.90;;;28.00;58.50;;;;;;4938861;28;20228;-90
2022/10/18 12:37:37;;;;;;;6.33;2.93;;;28.20;58.60;;;;;;4937698;28;20246;-89
2022/10/18 12:40:11;;;;;;;6.60;2.80;;;28.30;57.70;;;;;;4952672;28;20234;-89
2022/10/18 12:42:43;;;;;;;11.13;3.50;;;28.40;58.20;;;;;;4942439;28;20260;-90
2022/10/18 12:45:25;;;;;;;9.93;2.60;;;28.50;57.30;;;;;;4944009;28;20216;-90
2022/10/18 12:47:57;;;;;;;8.53;3.07;;;28.60;56.60;;;;;;4943217;28;20273;-89
2022/10/18 12:50:34;;;;;;;10.87;4.27;;;28.60;57.60;;;;;;4941397;28;20220;-90
2022/10/18 12:53:15;;;;;;;11.47;3.00;;;28.70;56.80;;;;;;4993808;28;20227;-89
2022/10/18 12:55:47;;;;;;;9.80;3.40;;;28.80;57.50;;;;;;4942826;29;20250;-89
2022/10/18 12:58:29;;;;;;;9.40;2.87;;;28.90;57.00;;;;;;4943974;28;20219;-89
2022/10/18 13:01:04;;;;;;;11.80;3.17;;;28.90;56.30;;;;;;4943342;28;20296;-90
2022/10/18 13:04:05;;;;;;;8.63;3.03;;;29.00;56.50;;;;;;4941479;28;20244;-90
2022/10/18 13:07:10;;;;;;;8.57;2.87;;;29.10;55.00;;;;;;4944597;28;20216;-90
2022/10/18 13:09:41;;;;;;;8.13;2.70;;;29.10;54.30;;;;;;4947739;28;20831;-89
2022/10/18 13:12:49;;;;;;;12.10;3.73;;;29.20;55.90;;;;;;4945198;28;20231;-89
2022/10/18 13:15:44;;;;;;;6.67;2.90;;;29.30;54.10;;;;;;4944985;28;20262;-89
2022/10/18 13:18:23;;;;;;;6.10;2.67;;;29.30;53.80;;;;;;4944785;28;20228;-89
2022/10/18 13:21:07;;;;;;;7.30;3.00;;;29.30;53.80;;;;;;4950175;28;20243;-89
2022/10/18 13:24:02;;;;;;;6.53;2.47;;;29.40;53.40;;;;;;4950533;28;20235;-90